Time;durP1;ratioP1;P1;durP2;ratioP2;P2;SDS_P1;SDS_P2;PMS_P1;PMS_P2;Temp;Humidity;BMP_temperature;BMP_pressure;BME280_temperature;BME280_humidity;BME280_pressure;Samples;Min_cycle;Max_cycle;Signal;HPM_P1;HPM_P2
2023/12/29 00:01:56;;;;;;;4.35;1.42;;;9.70;99.90;;;;;;4937234;29;20131;-81
2023/12/29 00:04:22;;;;;;;2.53;1.40;;;9.80;99.90;;;;;;4921360;29;20126;-82
2023/12/29 00:06:48;;;;;;;2.55;1.25;;;9.90;99.90;;;;;;4936988;29;20442;-80
2023/12/29 00:09:19;;;;;;;1.45;1.08;;;9.90;99.90;;;;;;4937500;29;20050;-79
2023/12/29 00:11:49;;;;;;;1.95;1.10;;;10.40;99.90;;;;;;4921072;29;20069;-79
2023/12/29 00:14:15;;;;;;;0.77;0.77;;;9.90;99.90;;;;;;4921317;29;20085;-79
2023/12/29 00:16:41;;;;;;;3.42;1.20;;;9.90;99.90;;;;;;4936996;29;20079;-79
2023/12/29 00:19:07;;;;;;;1.48;1.15;;;9.90;99.90;;;;;;4937091;29;20525;-82
2023/12/29 00:21:32;;;;;;;1.95;1.20;;;10.00;99.90;;;;;;4937422;29;20047;-82
2023/12/29 00:23:58;;;;;;;2.47;1.52;;;10.00;99.90;;;;;;4921064;29;20035;-82
2023/12/29 00:26:24;;;;;;;2.65;1.25;;;10.00;99.90;;;;;;4920899;29;20118;-82
2023/12/29 00:28:50;;;;;;;2.20;1.33;;;10.00;99.90;;;;;;4937558;29;20047;-80
2023/12/29 00:31:16;;;;;;;2.47;1.45;;;10.00;99.90;;;;;;4937498;29;20106;-79
2023/12/29 00:33:43;;;;;;;2.47;1.02;;;10.00;99.90;;;;;;4937200;29;20050;-79
2023/12/29 00:36:14;;;;;;;1.38;0.95;;;10.00;99.90;;;;;;4924305;29;20051;-79
2023/12/29 00:38:39;;;;;;;1.75;1.10;;;10.00;99.90;;;;;;4925467;29;20398;-79
2023/12/29 00:41:05;;;;;;;1.50;0.90;;;10.00;99.90;;;;;;4925023;29;20238;-80
2023/12/29 00:43:31;;;;;;;3.05;1.50;;;10.00;99.90;;;;;;4941125;29;20046;-79
2023/12/29 00:45:56;;;;;;;1.75;1.17;;;10.00;99.90;;;;;;4909452;29;20035;-79
2023/12/29 00:48:22;;;;;;;2.40;1.00;;;10.00;99.90;;;;;;4957221;29;20137;-80
2023/12/29 00:50:48;;;;;;;2.20;1.13;;;10.00;99.90;;;;;;4940416;29;20046;-79
2023/12/29 00:53:13;;;;;;;2.25;1.45;;;10.00;99.90;;;;;;4940469;29;20035;-79
2023/12/29 00:55:40;;;;;;;1.93;1.13;;;10.00;99.90;;;;;;4940457;29;20129;-79
2023/12/29 00:58:05;;;;;;;1.23;1.10;;;9.90;99.90;;;;;;4924644;29;20259;-80
2023/12/29 01:00:31;;;;;;;1.67;0.93;;;9.90;99.90;;;;;;4940762;29;20042;-79
2023/12/29 01:02:57;;;;;;;2.00;1.40;;;9.90;99.90;;;;;;4940639;29;20039;-79
2023/12/29 01:05:22;;;;;;;1.48;1.33;;;9.80;99.90;;;;;;4940667;29;20419;-79
2023/12/29 01:07:48;;;;;;;2.78;1.40;;;9.80;99.90;;;;;;4957777;29;20050;-79
2023/12/29 01:10:14;;;;;;;2.85;1.33;;;9.80;99.90;;;;;;4940421;29;20518;-79
2023/12/29 01:12:40;;;;;;;3.17;1.70;;;9.80;99.90;;;;;;4940123;29;20059;-80
2023/12/29 01:15:06;;;;;;;2.10;1.30;;;9.60;99.90;;;;;;4940301;29;20410;-80
2023/12/29 01:17:31;;;;;;;2.47;1.67;;;9.50;99.90;;;;;;4939987;29;20097;-80
2023/12/29 01:19:57;;;;;;;1.70;1.40;;;9.50;99.90;;;;;;4940341;29;20122;-80
2023/12/29 01:22:23;;;;;;;2.05;1.40;;;9.50;99.90;;;;;;4924368;29;20035;-80
2023/12/29 01:24:49;;;;;;;2.63;1.20;;;9.50;99.90;;;;;;4924372;29;20046;-81
2023/12/29 01:27:15;;;;;;;2.30;1.27;;;9.60;99.90;;;;;;4940025;29;20047;-81
2023/12/29 01:29:40;;;;;;;2.55;1.35;;;9.60;99.90;;;;;;4940549;29;20134;-80
2023/12/29 01:32:07;;;;;;;2.88;1.30;;;9.60;99.90;;;;;;4939765;29;20047;-80
2023/12/29 01:34:34;;;;;;;2.08;1.10;;;9.50;99.90;;;;;;4923849;29;20507;-80
2023/12/29 01:37:02;;;;;;;2.30;1.33;;;9.50;99.90;;;;;;4923985;29;20134;-80
2023/12/29 01:39:27;;;;;;;1.55;1.35;;;9.40;99.90;;;;;;4908503;29;20048;-80
2023/12/29 01:41:55;;;;;;;1.55;1.40;;;9.40;99.90;;;;;;4940006;29;20046;-80
2023/12/29 01:44:22;;;;;;;2.75;1.35;;;9.40;99.90;;;;;;4924063;29;20134;-80
2023/12/29 01:46:53;;;;;;;1.83;1.52;;;9.50;99.90;;;;;;4939950;29;20043;-80
2023/12/29 01:49:20;;;;;;;3.00;1.60;;;9.50;99.90;;;;;;4939742;29;20452;-79
2023/12/29 01:51:58;;;;;;;2.88;1.63;;;9.40;99.90;;;;;;4939451;29;20418;-80
2023/12/29 01:54:27;;;;;;;2.35;1.60;;;9.70;99.90;;;;;;4939492;29;20043;-79
2023/12/29 01:56:56;;;;;;;2.20;1.63;;;9.60;99.90;;;;;;4939728;29;20419;-79
2023/12/29 01:59:22;;;;;;;1.67;1.30;;;9.50;99.90;;;;;;4939954;29;20039;-80
2023/12/29 02:01:48;;;;;;;1.52;1.42;;;9.50;99.90;;;;;;4924001;29;20511;-79
2023/12/29 02:04:15;;;;;;;1.88;1.52;;;9.50;99.90;;;;;;4939424;29;20035;-79
2023/12/29 02:06:41;;;;;;;1.77;0.90;;;9.60;99.90;;;;;;4939074;29;20443;-79
2023/12/29 02:09:08;;;;;;;1.52;1.17;;;9.60;99.90;;;;;;4923600;29;20050;-80
2023/12/29 02:11:33;;;;;;;2.55;1.00;;;9.50;99.90;;;;;;4939316;29;20367;-79
2023/12/29 02:14:02;;;;;;;1.70;1.27;;;9.60;99.90;;;;;;4923729;29;20039;-79
2023/12/29 02:16:48;;;;;;;1.38;0.80;;;9.60;99.90;;;;;;4923472;29;20496;-80
2023/12/29 02:20:02;;;;;;;0.73;0.70;;;9.50;99.90;;;;;;4923909;29;20054;-80
2023/12/29 02:22:27;;;;;;;1.95;1.15;;;9.50;99.90;;;;;;4936445;29;20050;-80
2023/12/29 02:24:53;;;;;;;2.47;1.27;;;9.40;99.90;;;;;;4939698;29;20499;-80
2023/12/29 02:27:42;;;;;;;1.75;0.95;;;9.30;99.90;;;;;;4939964;29;20133;-80
2023/12/29 02:30:19;;;;;;;3.55;1.52;;;9.20;99.90;;;;;;4923855;29;20130;-83
2023/12/29 02:32:47;;;;;;;3.50;1.55;;;9.20;99.90;;;;;;4938948;29;20403;-83
2023/12/29 02:35:20;;;;;;;1.92;1.30;;;9.20;99.90;;;;;;4939068;29;20101;-83
2023/12/29 02:37:48;;;;;;;4.93;1.85;;;9.20;99.90;;;;;;4938802;29;20546;-83
2023/12/29 02:40:14;;;;;;;1.80;1.45;;;9.20;99.90;;;;;;4939143;29;20043;-83
2023/12/29 02:42:48;;;;;;;1.35;1.25;;;9.20;99.90;;;;;;4938704;29;20039;-83
2023/12/29 02:45:17;;;;;;;1.98;1.40;;;9.20;99.90;;;;;;4938700;29;20407;-82
2023/12/29 02:47:43;;;;;;;2.45;1.35;;;9.20;99.90;;;;;;4938884;29;20047;-82
2023/12/29 02:50:10;;;;;;;1.90;1.35;;;9.30;99.90;;;;;;4938625;29;20050;-81
2023/12/29 02:52:36;;;;;;;2.45;1.30;;;9.40;99.90;;;;;;4922799;29;20050;-80
2023/12/29 02:55:02;;;;;;;1.80;1.23;;;9.40;99.90;;;;;;4938356;29;20043;-80
2023/12/29 02:57:27;;;;;;;1.50;1.23;;;9.40;99.90;;;;;;4937572;29;20035;-80
2023/12/29 02:59:53;;;;;;;1.13;1.00;;;9.30;99.90;;;;;;4938408;29;20098;-80
2023/12/29 03:02:19;;;;;;;3.67;1.65;;;9.30;99.90;;;;;;4922784;29;20043;-80
2023/12/29 03:04:45;;;;;;;1.77;1.23;;;9.30;99.90;;;;;;4938438;29;20045;-80
2023/12/29 03:07:11;;;;;;;2.92;1.50;;;9.30;99.90;;;;;;4938570;29;20047;-80
2023/12/29 03:09:37;;;;;;;2.40;1.30;;;9.30;99.90;;;;;;4937978;29;20513;-79
2023/12/29 03:12:03;;;;;;;0.98;0.98;;;9.40;99.90;;;;;;4937896;29;20063;-80
2023/12/29 03:14:29;;;;;;;1.35;0.93;;;9.30;99.90;;;;;;4906235;29;20055;-81
2023/12/29 03:16:55;;;;;;;2.28;1.40;;;9.40;99.90;;;;;;4937876;29;20051;-80
2023/12/29 03:19:20;;;;;;;1.40;1.17;;;9.40;99.90;;;;;;4938028;29;20411;-80
2023/12/29 03:21:46;;;;;;;2.72;1.45;;;9.40;99.90;;;;;;4937754;29;20550;-80
2023/12/29 03:24:12;;;;;;;3.33;1.73;;;9.40;99.90;;;;;;4937673;29;20039;-80
2023/12/29 03:26:37;;;;;;;1.50;1.17;;;9.40;99.90;;;;;;4937739;29;20066;-80
2023/12/29 03:29:04;;;;;;;1.50;1.38;;;9.40;99.90;;;;;;4937901;29;20047;-80
2023/12/29 03:31:30;;;;;;;1.95;1.15;;;9.40;99.90;;;;;;4937736;29;20439;-79
2023/12/29 03:33:55;;;;;;;2.92;1.80;;;9.40;99.90;;;;;;4937508;29;20134;-79
2023/12/29 03:36:21;;;;;;;2.20;1.50;;;9.40;99.90;;;;;;4921785;29;20043;-79
2023/12/29 03:38:46;;;;;;;2.85;1.48;;;9.40;99.90;;;;;;4937700;29;20042;-79
2023/12/29 03:41:12;;;;;;;4.40;2.15;;;9.40;99.90;;;;;;4937627;29;20126;-79
2023/12/29 03:43:38;;;;;;;2.80;1.55;;;9.40;99.90;;;;;;4921785;29;20395;-80
2023/12/29 03:46:21;;;;;;;1.98;1.17;;;9.40;99.90;;;;;;4921524;29;20039;-80
2023/12/29 03:48:47;;;;;;;2.15;1.55;;;9.40;99.90;;;;;;4937309;29;20137;-80
2023/12/29 03:51:14;;;;;;;3.05;1.30;;;9.40;99.90;;;;;;4921765;29;20194;-80
2023/12/29 03:53:40;;;;;;;1.48;1.20;;;11.30;99.90;;;;;;4937546;29;20055;-80
2023/12/29 03:56:13;;;;;;;3.65;1.50;;;9.40;99.90;;;;;;4937353;29;20051;-79
2023/12/29 03:58:39;;;;;;;3.20;1.55;;;9.50;99.90;;;;;;4937380;29;20054;-79
2023/12/29 04:01:08;;;;;;;2.63;1.30;;;9.40;99.90;;;;;;4937359;29;20035;-80
2023/12/29 04:03:34;;;;;;;2.55;1.75;;;9.30;99.90;;;;;;4921424;29;20407;-79
2023/12/29 04:06:00;;;;;;;3.70;1.70;;;9.40;99.90;;;;;;4921503;29;20035;-80
2023/12/29 04:08:28;;;;;;;2.90;1.77;;;9.40;99.90;;;;;;4953738;29;20043;-79
2023/12/29 04:10:54;;;;;;;4.10;1.90;;;9.40;99.90;;;;;;4936546;29;20066;-80
2023/12/29 04:13:20;;;;;;;3.30;1.60;;;9.40;99.90;;;;;;4921738;29;20083;-80
2023/12/29 04:15:45;;;;;;;2.60;1.58;;;9.40;99.90;;;;;;4921746;29;20039;-79
2023/12/29 04:18:11;;;;;;;3.60;1.55;;;9.40;99.90;;;;;;4921154;29;20101;-79
2023/12/29 04:20:37;;;;;;;1.73;1.23;;;9.30;99.90;;;;;;4937312;29;20115;-80
2023/12/29 04:23:05;;;;;;;3.13;1.92;;;9.30;99.90;;;;;;4937135;29;20047;-79
2023/12/29 04:25:30;;;;;;;2.17;1.63;;;9.20;99.90;;;;;;4937231;29;20047;-79
2023/12/29 04:27:56;;;;;;;3.28;2.00;;;9.20;99.90;;;;;;4921031;29;20384;-79
2023/12/29 04:30:22;;;;;;;4.45;2.10;;;9.20;99.90;;;;;;4936956;29;20051;-79
2023/12/29 04:32:47;;;;;;;1.48;1.33;;;9.20;99.90;;;;;;4936888;29;20050;-79
2023/12/29 04:35:14;;;;;;;3.75;2.20;;;9.10;99.90;;;;;;4936846;29;20042;-79
2023/12/29 04:37:41;;;;;;;3.60;1.40;;;9.10;99.90;;;;;;4936810;29;20139;-79
2023/12/29 04:40:07;;;;;;;2.30;1.20;;;9.00;99.90;;;;;;4936855;29;20454;-79
2023/12/29 04:42:33;;;;;;;2.28;1.33;;;9.00;99.90;;;;;;4936928;29;20054;-80
2023/12/29 04:44:58;;;;;;;3.55;1.65;;;9.00;99.90;;;;;;4937034;29;20403;-80
2023/12/29 04:47:24;;;;;;;5.95;2.75;;;9.00;99.90;;;;;;4937007;29;20043;-80
2023/12/29 04:49:50;;;;;;;3.90;1.80;;;9.00;99.90;;;;;;4936757;29;20043;-80
2023/12/29 04:52:15;;;;;;;2.25;1.70;;;9.00;99.90;;;;;;4936854;29;20055;-80
2023/12/29 04:54:41;;;;;;;3.28;2.00;;;9.00;99.90;;;;;;4936622;29;20380;-80
2023/12/29 04:57:07;;;;;;;2.47;1.48;;;8.90;99.90;;;;;;4936592;29;20079;-80
2023/12/29 04:59:32;;;;;;;4.22;1.90;;;9.00;99.90;;;;;;4920814;29;20127;-80
2023/12/29 05:01:58;;;;;;;2.72;1.80;;;9.00;99.90;;;;;;4936612;29;20036;-80
2023/12/29 05:04:23;;;;;;;4.50;2.85;;;9.00;99.90;;;;;;4936508;29;20046;-80
2023/12/29 05:06:49;;;;;;;5.00;1.88;;;9.00;99.90;;;;;;4936620;29;20407;-80
2023/12/29 05:09:15;;;;;;;3.38;2.00;;;9.00;99.90;;;;;;4936452;29;20376;-80
2023/12/29 05:11:40;;;;;;;2.42;2.00;;;9.10;99.90;;;;;;4936399;29;20512;-80
2023/12/29 05:14:06;;;;;;;3.63;1.95;;;9.20;99.90;;;;;;4936532;29;20065;-80
2023/12/29 05:16:32;;;;;;;6.57;2.08;;;9.20;99.90;;;;;;4936374;29;20401;-80
2023/12/29 05:18:57;;;;;;;2.47;1.70;;;9.20;99.90;;;;;;4936309;29;20035;-80
2023/12/29 05:21:24;;;;;;;5.18;1.95;;;9.20;99.90;;;;;;4937923;29;20075;-80
2023/12/29 05:23:50;;;;;;;5.47;1.95;;;9.30;99.90;;;;;;4940217;29;20047;-80
2023/12/29 05:26:16;;;;;;;3.22;1.75;;;9.30;99.90;;;;;;4939844;29;20050;-80
2023/12/29 05:28:41;;;;;;;3.78;1.35;;;9.30;99.90;;;;;;4939829;29;20483;-80
2023/12/29 05:31:08;;;;;;;3.03;1.90;;;9.40;99.90;;;;;;4939792;29;20487;-80
2023/12/29 05:33:34;;;;;;;2.97;1.83;;;9.40;99.90;;;;;;4924122;29;20050;-80
2023/12/29 05:36:09;;;;;;;4.70;2.22;;;9.40;99.90;;;;;;4923852;29;20039;-80
2023/12/29 05:38:36;;;;;;;5.75;2.70;;;9.40;99.90;;;;;;4923826;29;20384;-80
2023/12/29 05:41:04;;;;;;;3.60;1.95;;;9.40;99.90;;;;;;4939920;29;20151;-80
2023/12/29 05:43:31;;;;;;;3.78;1.67;;;9.50;99.90;;;;;;4939703;29;20042;-80
2023/12/29 05:45:57;;;;;;;4.10;1.85;;;9.40;99.90;;;;;;4939777;29;20106;-80
2023/12/29 05:48:23;;;;;;;3.42;2.22;;;9.40;99.90;;;;;;4923965;29;20039;-80
2023/12/29 05:50:50;;;;;;;4.10;2.30;;;9.40;99.90;;;;;;4939469;29;20043;-80
2023/12/29 05:53:16;;;;;;;2.63;1.52;;;9.40;99.90;;;;;;4923618;29;20055;-79
2023/12/29 05:55:41;;;;;;;4.28;1.88;;;9.40;99.90;;;;;;4939343;29;20046;-80
2023/12/29 05:58:07;;;;;;;3.28;1.60;;;9.40;99.90;;;;;;4923313;29;20047;-79
2023/12/29 06:00:33;;;;;;;2.72;1.60;;;9.40;99.90;;;;;;4939157;29;20039;-80
2023/12/29 06:02:59;;;;;;;4.57;1.80;;;9.40;99.90;;;;;;4923560;29;20491;-78
2023/12/29 06:05:24;;;;;;;3.10;1.80;;;9.40;99.90;;;;;;4939580;29;20098;-79
2023/12/29 06:07:50;;;;;;;3.38;1.48;;;9.40;99.90;;;;;;4939236;29;20518;-78
2023/12/29 06:10:16;;;;;;;3.63;1.92;;;9.40;99.90;;;;;;4939137;29;20055;-78
2023/12/29 06:12:42;;;;;;;5.20;1.90;;;9.30;99.90;;;;;;4938973;29;20179;-78
2023/12/29 06:15:08;;;;;;;5.03;1.67;;;9.30;99.90;;;;;;4939294;29;20046;-78
2023/12/29 06:17:35;;;;;;;3.90;1.80;;;9.30;99.90;;;;;;4938899;29;20422;-78
2023/12/29 06:20:02;;;;;;;2.63;1.55;;;9.30;99.90;;;;;;4938973;29;20051;-78
2023/12/29 06:22:28;;;;;;;3.50;2.10;;;9.30;99.90;;;;;;4939218;29;20043;-78
2023/12/29 06:24:53;;;;;;;4.15;2.05;;;9.20;99.90;;;;;;4923126;29;20534;-80
2023/12/29 06:27:19;;;;;;;3.25;1.63;;;9.20;99.90;;;;;;4939326;29;20035;-80
2023/12/29 06:29:45;;;;;;;3.28;1.77;;;9.20;99.90;;;;;;4954775;29;20422;-79
2023/12/29 06:32:10;;;;;;;4.60;2.30;;;9.20;99.90;;;;;;4938224;29;20137;-79
2023/12/29 06:34:36;;;;;;;3.75;2.08;;;9.20;99.90;;;;;;4922698;29;20043;-80
2023/12/29 06:37:02;;;;;;;6.60;2.17;;;9.20;99.90;;;;;;4938716;29;20051;-81
2023/12/29 06:39:27;;;;;;;4.55;1.88;;;9.20;99.90;;;;;;4938925;29;20045;-79
2023/12/29 06:41:53;;;;;;;3.28;1.77;;;9.30;99.90;;;;;;4938594;29;20106;-81
2023/12/29 06:44:19;;;;;;;3.78;1.90;;;9.30;99.90;;;;;;4938606;29;20041;-80
2023/12/29 06:46:44;;;;;;;3.42;2.08;;;9.20;99.90;;;;;;4922954;29;20462;-80
2023/12/29 06:49:10;;;;;;;4.70;2.00;;;9.20;99.90;;;;;;4938701;29;20062;-81
2023/12/29 06:51:38;;;;;;;3.67;1.95;;;9.20;99.90;;;;;;4938687;29;20051;-80
2023/12/29 06:54:04;;;;;;;5.07;2.30;;;9.20;99.90;;;;;;4938783;29;20098;-79
2023/12/29 06:56:31;;;;;;;4.25;2.03;;;9.20;99.90;;;;;;4938594;29;20044;-83
2023/12/29 06:58:56;;;;;;;2.80;1.90;;;9.20;99.90;;;;;;4939505;29;20039;-82
2023/12/29 07:01:22;;;;;;;5.55;2.42;;;9.20;99.90;;;;;;4923359;29;20039;-83
2023/12/29 07:03:48;;;;;;;2.75;1.63;;;9.20;99.90;;;;;;4938350;29;20372;-78
2023/12/29 07:06:14;;;;;;;5.30;2.47;;;9.20;99.90;;;;;;4938328;29;20150;-79
2023/12/29 07:08:39;;;;;;;5.30;1.90;;;9.20;99.90;;;;;;4938133;29;20043;-78
2023/12/29 07:11:10;;;;;;;3.75;2.13;;;9.20;99.90;;;;;;4938039;29;20515;-78
2023/12/29 07:13:36;;;;;;;4.38;2.85;;;9.20;99.90;;;;;;4938629;29;20043;-82
2023/12/29 07:16:02;;;;;;;6.43;2.13;;;9.20;99.90;;;;;;4940074;29;20046;-82
2023/12/29 07:18:29;;;;;;;4.88;2.72;;;9.10;99.90;;;;;;4940438;29;20130;-81
2023/12/29 07:20:56;;;;;;;3.80;2.33;;;9.10;99.90;;;;;;4956777;29;20122;-79
2023/12/29 07:23:21;;;;;;;3.92;2.20;;;9.20;99.90;;;;;;4938224;29;20126;-78
2023/12/29 07:25:48;;;;;;;4.47;2.15;;;9.10;99.90;;;;;;4937887;29;20047;-79
2023/12/29 07:28:14;;;;;;;5.72;2.85;;;9.10;99.90;;;;;;4938013;29;20035;-80
2023/12/29 07:30:39;;;;;;;4.00;2.15;;;9.10;99.90;;;;;;4938424;29;20397;-79
2023/12/29 07:33:05;;;;;;;5.32;2.40;;;9.10;99.90;;;;;;4938811;29;20888;-76
2023/12/29 07:35:31;;;;;;;7.15;2.53;;;9.00;99.90;;;;;;4937550;29;20047;-75
2023/12/29 07:37:56;;;;;;;5.82;2.67;;;9.10;99.90;;;;;;4921854;29;20050;-81
2023/12/29 07:40:22;;;;;;;3.90;1.90;;;9.10;99.90;;;;;;4939615;29;20105;-80
2023/12/29 07:42:50;;;;;;;5.97;2.42;;;9.10;99.90;;;;;;4937781;29;20046;-78
2023/12/29 07:45:16;;;;;;;2.58;1.88;;;9.10;99.90;;;;;;4939741;29;20122;-81
2023/12/29 07:47:42;;;;;;;5.00;2.15;;;9.10;99.90;;;;;;4940934;29;20106;-81
2023/12/29 07:50:08;;;;;;;3.78;2.25;;;9.20;99.90;;;;;;4941581;29;20474;-81
2023/12/29 07:52:34;;;;;;;2.85;1.40;;;9.20;99.90;;;;;;4941561;29;20431;-81
2023/12/29 07:55:00;;;;;;;8.18;2.75;;;9.20;99.90;;;;;;4938343;29;20381;-82
2023/12/29 07:57:25;;;;;;;5.20;2.55;;;9.20;99.90;;;;;;4938445;29;20043;-84
2023/12/29 07:59:51;;;;;;;5.50;2.60;;;9.10;99.90;;;;;;4938993;29;20134;-82
2023/12/29 08:02:17;;;;;;;3.40;1.83;;;9.10;99.90;;;;;;4938265;29;20071;-83
2023/12/29 19:14:21;;;;;;;1.90;0.82;;;7.10;99.90;;;;;;4993610;28;20058;-66
2023/12/29 19:16:47;;;;;;;1.13;0.98;;;;;;;;;;4994050;28;20034;-67
2023/12/29 19:19:12;;;;;;;1.38;0.80;;;7.20;99.90;;;;;;4994005;28;20470;-66
2023/12/29 19:21:43;;;;;;;0.60;0.60;;;7.10;99.90;;;;;;4976241;28;20058;-65
2023/12/29 19:24:09;;;;;;;2.20;1.10;;;7.80;99.90;;;;;;4993762;28;20117;-68
2023/12/29 19:26:35;;;;;;;2.58;1.08;;;7.20;99.90;;;;;;4993949;28;20237;-65
2023/12/29 19:29:01;;;;;;;0.60;0.60;;;7.10;99.90;;;;;;4993684;28;20070;-67
2023/12/29 19:31:27;;;;;;;1.38;0.80;;;7.10;99.90;;;;;;4993444;28;20506;-66
2023/12/29 19:33:52;;;;;;;2.30;1.02;;;7.10;99.90;;;;;;4993554;28;20038;-65
2023/12/29 19:36:19;;;;;;;2.60;1.17;;;7.10;99.90;;;;;;4993916;28;20073;-66
2023/12/29 19:38:47;;;;;;;0.85;0.80;;;7.10;99.90;;;;;;4992067;28;20053;-68
2023/12/29 19:41:19;;;;;;;0.65;0.65;;;7.10;99.90;;;;;;4993420;28;20047;-67
2023/12/29 19:43:44;;;;;;;1.38;0.90;;;7.00;99.90;;;;;;4993631;28;20070;-67
2023/12/29 19:46:10;;;;;;;0.60;0.60;;;7.00;99.90;;;;;;4993605;28;20150;-68
2023/12/29 19:48:36;;;;;;;2.15;0.90;;;7.00;99.90;;;;;;4993524;28;20547;-68
2023/12/29 19:51:02;;;;;;;1.52;1.13;;;7.00;99.90;;;;;;4993308;28;20066;-68
2023/12/29 19:53:28;;;;;;;1.48;1.00;;;7.00;99.90;;;;;;4975803;28;20046;-68
2023/12/29 19:55:54;;;;;;;1.27;0.93;;;7.00;99.90;;;;;;4993126;28;20050;-68
2023/12/29 19:58:20;;;;;;;1.92;0.90;;;6.90;99.90;;;;;;4993259;28;20044;-68
2023/12/29 20:00:48;;;;;;;0.60;0.60;;;7.00;99.90;;;;;;4993135;28;20117;-68
2023/12/29 20:03:14;;;;;;;0.70;0.70;;;7.60;99.90;;;;;;4992941;28;20034;-68
2023/12/29 20:05:40;;;;;;;1.40;1.05;;;6.90;99.90;;;;;;4993288;28;20034;-69
2023/12/29 20:08:07;;;;;;;1.17;0.68;;;6.90;99.90;;;;;;4992890;28;20082;-68
2023/12/29 20:10:33;;;;;;;1.17;0.80;;;6.90;99.90;;;;;;4993155;28;20034;-68
2023/12/29 20:12:59;;;;;;;0.93;0.77;;;6.90;99.90;;;;;;4992784;28;20049;-68
2023/12/29 20:15:24;;;;;;;1.55;1.08;;;7.20;99.90;;;;;;4993119;28;20070;-68
2023/12/29 20:17:50;;;;;;;0.80;0.73;;;7.20;99.90;;;;;;4993082;28;20049;-68
2023/12/29 20:20:16;;;;;;;1.00;0.90;;;6.90;99.90;;;;;;4992768;28;20092;-68
2023/12/29 20:22:44;;;;;;;2.92;0.95;;;7.50;99.90;;;;;;4991535;28;20042;-67
2023/12/29 20:25:10;;;;;;;0.75;0.75;;;6.90;99.90;;;;;;4993001;28;20038;-68
2023/12/29 20:27:36;;;;;;;0.77;0.73;;;6.90;99.90;;;;;;4992952;28;20140;-68
2023/12/29 20:30:04;;;;;;;1.50;1.00;;;6.90;99.90;;;;;;4992974;28;20084;-68
2023/12/29 20:32:30;;;;;;;1.50;1.13;;;6.90;99.90;;;;;;4992598;28;20050;-68
2023/12/29 20:34:56;;;;;;;1.13;1.00;;;6.90;99.90;;;;;;4991645;28;20038;-68
2023/12/29 20:37:22;;;;;;;1.33;1.15;;;6.90;99.90;;;;;;4991803;28;20088;-69
2023/12/29 20:39:47;;;;;;;0.82;0.70;;;6.90;99.90;;;;;;4991176;28;20042;-68
2023/12/29 20:42:13;;;;;;;1.45;0.90;;;6.90;99.90;;;;;;4992890;28;20073;-69
2023/12/29 20:44:39;;;;;;;0.98;0.88;;;7.40;99.90;;;;;;4991330;28;20414;-68
2023/12/29 20:47:04;;;;;;;1.10;1.00;;;6.90;99.90;;;;;;4992614;28;20072;-68
2023/12/29 20:49:30;;;;;;;0.85;0.80;;;6.90;99.90;;;;;;4992845;28;20046;-68
2023/12/29 20:51:55;;;;;;;0.77;0.77;;;6.90;99.90;;;;;;4993400;28;20081;-68
2023/12/29 20:54:22;;;;;;;0.93;0.82;;;7.00;99.90;;;;;;4996724;28;20089;-68
2023/12/29 20:56:47;;;;;;;1.35;0.75;;;7.00;99.90;;;;;;4996618;28;20042;-68
2023/12/29 20:59:13;;;;;;;1.02;0.70;;;7.00;99.90;;;;;;4996663;28;20468;-69
2023/12/29 21:01:40;;;;;;;1.20;0.90;;;7.20;99.90;;;;;;4996605;28;20039;-68
2023/12/29 21:04:10;;;;;;;0.77;0.70;;;7.30;99.90;;;;;;4996564;28;20049;-68
2023/12/29 21:06:36;;;;;;;1.38;1.05;;;7.00;99.90;;;;;;4995022;28;20422;-68
2023/12/29 21:09:02;;;;;;;1.25;0.80;;;7.20;99.90;;;;;;4996513;28;20401;-68
2023/12/29 21:11:28;;;;;;;0.82;0.82;;;7.10;99.90;;;;;;4995201;28;20105;-68
2023/12/29 21:13:54;;;;;;;1.10;0.82;;;7.10;99.90;;;;;;4996021;28;20054;-68
2023/12/29 21:16:20;;;;;;;1.38;1.20;;;7.00;99.90;;;;;;4996356;28;20046;-68
2023/12/29 21:18:46;;;;;;;1.00;0.90;;;7.00;99.90;;;;;;4996219;28;20404;-68
2023/12/29 21:21:12;;;;;;;1.13;0.95;;;8.00;99.90;;;;;;4996358;28;20042;-68
2023/12/29 21:23:37;;;;;;;1.50;0.85;;;6.90;99.90;;;;;;4995055;28;20045;-68
2023/12/29 21:26:04;;;;;;;0.95;0.80;;;6.90;99.90;;;;;;4995945;28;20532;-68
2023/12/29 21:28:29;;;;;;;1.27;0.88;;;6.80;99.90;;;;;;4996192;28;20398;-68
2023/12/29 21:30:56;;;;;;;1.00;0.90;;;6.80;99.90;;;;;;4996149;28;20046;-68
2023/12/29 21:33:22;;;;;;;1.10;1.00;;;6.70;99.90;;;;;;4994610;28;20413;-68
2023/12/29 21:35:49;;;;;;;2.00;0.98;;;6.90;99.90;;;;;;4995715;28;20034;-68
2023/12/29 21:38:15;;;;;;;1.58;0.80;;;6.70;99.90;;;;;;4995886;28;20046;-68
2023/12/29 21:40:41;;;;;;;1.05;0.93;;;6.70;99.90;;;;;;4995947;28;20050;-68
2023/12/29 21:43:09;;;;;;;1.35;0.95;;;6.70;99.90;;;;;;4995858;28;20560;-68
2023/12/29 21:45:35;;;;;;;1.00;0.95;;;6.90;99.90;;;;;;4995830;28;20164;-68
2023/12/29 21:48:01;;;;;;;1.15;1.02;;;6.70;99.90;;;;;;4995774;28;20506;-68
2023/12/29 21:50:27;;;;;;;1.58;0.88;;;6.70;99.90;;;;;;4995481;28;20073;-69
2023/12/29 21:52:53;;;;;;;1.02;0.93;;;6.80;99.90;;;;;;4995763;28;20124;-68
2023/12/29 21:55:20;;;;;;;0.82;0.70;;;6.80;99.90;;;;;;4995366;28;20053;-68
2023/12/29 21:57:46;;;;;;;1.88;1.00;;;6.80;99.90;;;;;;4995719;28;20371;-68
2023/12/29 22:00:13;;;;;;;0.80;0.80;;;6.80;99.90;;;;;;4995602;28;20549;-68
2023/12/29 22:02:40;;;;;;;1.88;0.90;;;6.80;99.90;;;;;;4995386;28;20118;-68
2023/12/29 22:05:05;;;;;;;0.95;0.88;;;6.90;99.90;;;;;;4995551;28;20565;-68
2023/12/29 22:07:31;;;;;;;2.17;1.15;;;6.90;99.90;;;;;;4995250;28;20113;-66
2023/12/29 22:09:57;;;;;;;1.27;0.90;;;6.90;99.90;;;;;;4995384;28;20113;-66
2023/12/29 22:12:23;;;;;;;0.65;0.65;;;6.90;99.90;;;;;;4995206;28;20061;-66
2023/12/29 22:14:48;;;;;;;0.88;0.80;;;7.10;99.90;;;;;;4995289;28;20046;-66
2023/12/29 22:17:14;;;;;;;1.20;1.10;;;6.80;99.90;;;;;;4995242;28;20031;-66
2023/12/29 22:19:40;;;;;;;1.27;0.70;;;6.80;99.90;;;;;;4995164;28;20042;-67
2023/12/29 22:22:06;;;;;;;1.25;0.95;;;6.80;99.90;;;;;;4994891;28;20049;-67
2023/12/29 22:24:32;;;;;;;1.20;0.70;;;6.70;99.90;;;;;;4995191;28;20564;-72
2023/12/29 22:26:58;;;;;;;1.15;0.95;;;6.90;99.90;;;;;;4993451;28;20058;-67
2023/12/29 22:29:24;;;;;;;1.20;0.93;;;6.60;99.90;;;;;;4995071;28;20046;-66
2023/12/29 22:31:50;;;;;;;0.73;0.73;;;6.60;99.90;;;;;;4995293;28;20049;-66
2023/12/29 22:34:16;;;;;;;2.78;1.05;;;7.10;99.90;;;;;;4993457;28;20050;-74
2023/12/29 22:36:42;;;;;;;0.75;0.73;;;6.70;99.90;;;;;;4993376;28;20383;-67
2023/12/29 22:39:07;;;;;;;0.70;0.70;;;6.60;99.90;;;;;;4994800;28;20470;-78
2023/12/29 22:41:33;;;;;;;0.80;0.80;;;6.70;99.90;;;;;;4977077;28;20057;-67
2023/12/29 22:43:59;;;;;;;0.80;0.80;;;6.60;99.90;;;;;;4993395;28;20038;-67
2023/12/29 22:46:25;;;;;;;0.95;0.80;;;6.70;99.90;;;;;;4994720;28;20078;-67
2023/12/29 22:48:52;;;;;;;1.38;0.90;;;6.70;99.90;;;;;;4994770;28;20046;-67
2023/12/29 22:51:17;;;;;;;0.85;0.70;;;6.70;99.90;;;;;;4994383;28;20046;-67
2023/12/29 22:53:43;;;;;;;1.08;0.80;;;6.70;99.90;;;;;;4994656;28;20041;-67
2023/12/29 22:56:08;;;;;;;2.50;1.10;;;6.80;99.90;;;;;;4994506;28;20445;-67
2023/12/29 22:58:34;;;;;;;1.00;0.90;;;6.80;99.90;;;;;;4994417;28;20042;-66
2023/12/29 23:01:00;;;;;;;1.50;0.88;;;6.80;99.90;;;;;;4994174;28;20789;-67
2023/12/29 23:03:26;;;;;;;1.08;0.95;;;6.90;99.90;;;;;;4994360;28;20109;-67
2023/12/29 23:05:51;;;;;;;0.70;0.70;;;6.90;99.90;;;;;;4994350;28;20042;-67
2023/12/29 23:08:17;;;;;;;1.38;0.88;;;6.90;99.90;;;;;;4994410;28;20100;-68
2023/12/29 23:10:43;;;;;;;1.73;0.90;;;6.90;99.90;;;;;;4994345;28;20034;-68
2023/12/29 23:13:12;;;;;;;0.90;0.82;;;6.90;99.90;;;;;;4993831;28;20054;-68
2023/12/29 23:15:38;;;;;;;2.50;0.95;;;6.90;99.90;;;;;;4993590;28;20046;-68
2023/12/29 23:18:05;;;;;;;1.33;0.90;;;7.20;99.90;;;;;;4994144;28;20061;-66
2023/12/29 23:20:30;;;;;;;0.80;0.80;;;6.90;99.90;;;;;;4994249;28;20073;-68
2023/12/29 23:22:56;;;;;;;0.60;0.60;;;6.90;99.90;;;;;;4993985;28;20074;-68
2023/12/29 23:25:23;;;;;;;1.27;0.90;;;7.10;99.90;;;;;;4993987;28;20078;-68
2023/12/29 23:27:49;;;;;;;0.70;0.70;;;6.90;99.90;;;;;;4993901;28;20092;-68
2023/12/29 23:30:15;;;;;;;1.20;1.10;;;6.80;99.90;;;;;;4993907;28;20073;-68
2023/12/29 23:32:41;;;;;;;1.08;0.82;;;6.80;99.90;;;;;;4992399;28;20046;-68
2023/12/29 23:35:07;;;;;;;2.50;0.95;;;6.80;99.90;;;;;;4993795;28;20161;-68
2023/12/29 23:37:32;;;;;;;0.60;0.60;;;6.80;99.90;;;;;;4993455;28;20030;-68
2023/12/29 23:39:59;;;;;;;1.48;0.85;;;6.80;99.90;;;;;;4993786;28;20053;-68
2023/12/29 23:42:25;;;;;;;1.20;0.70;;;7.20;99.90;;;;;;4993685;28;20402;-68
2023/12/29 23:44:51;;;;;;;1.27;0.90;;;7.00;99.90;;;;;;4993696;28;20042;-68
2023/12/29 23:47:17;;;;;;;2.03;0.93;;;6.90;99.90;;;;;;4993367;28;20042;-68
2023/12/29 23:49:44;;;;;;;2.38;2.05;;;7.00;99.90;;;;;;4993550;28;20500;-68
2023/12/29 23:52:10;;;;;;;2.15;1.40;;;6.80;99.90;;;;;;4993588;28;20439;-68
2023/12/29 23:54:36;;;;;;;2.13;1.10;;;6.80;99.90;;;;;;4993463;28;20082;-68
2023/12/29 23:57:02;;;;;;;1.98;1.30;;;6.80;99.90;;;;;;4993450;28;20046;-68
2023/12/29 23:59:28;;;;;;;1.20;1.02;;;6.90;99.90;;;;;;4993342;28;20449;-68
